Time;durP1;ratioP1;P1;durP2;ratioP2;P2;SDS_P1;SDS_P2;PMS_P1;PMS_P2;Temp;Humidity;BMP_temperature;BMP_pressure;BME280_temperature;BME280_humidity;BME280_pressure;Samples;Min_cycle;Max_cycle;Signal;HPM_P1;HPM_P2
2021/09/18 00:01:43;;;;;;;20.15;5.63;;;;;;;23.86;43.43;101197.53;5052535;28;20025;-72
2021/09/18 00:04:09;;;;;;;16.67;5.20;;;;;;;23.87;43.32;101195.53;5052583;28;20021;-75
2021/09/18 00:06:35;;;;;;;15.70;5.28;;;;;;;23.85;43.40;101200.72;5052388;28;20087;-74
2021/09/18 00:09:01;;;;;;;14.23;5.25;;;;;;;23.80;43.64;101201.88;5052536;28;20032;-74
2021/09/18 00:11:26;;;;;;;16.75;5.70;;;;;;;23.77;43.51;101200.69;5052762;28;20024;-74
2021/09/18 00:13:52;;;;;;;17.55;5.22;;;;;;;23.71;43.60;101198.66;5052784;28;20095;-74
2021/09/18 00:16:18;;;;;;;17.15;7.45;;;;;;;23.75;43.65;101200.28;5051174;28;20517;-74
2021/09/18 00:18:43;;;;;;;15.73;5.32;;;;;;;23.73;43.19;101194.31;5052371;28;20025;-76
2021/09/18 00:21:09;;;;;;;12.90;4.80;;;;;;;23.70;43.47;101192.28;5052480;28;20075;-74
2021/09/18 00:23:34;;;;;;;12.73;5.20;;;;;;;23.72;43.41;101191.91;5038697;28;20044;-74
2021/09/18 00:26:00;;;;;;;21.00;6.72;;;;;;;23.64;43.55;101195.84;5053093;28;20033;-75
2021/09/18 00:28:26;;;;;;;12.75;5.90;;;;;;;23.58;43.49;101201.00;5057485;28;20564;-74
2021/09/18 00:30:52;;;;;;;21.20;6.50;;;;;;;23.64;43.34;101195.84;5063069;28;20031;-71
2021/09/18 00:33:17;;;;;;;12.40;6.10;;;;;;;23.61;43.51;101194.66;5062203;28;20024;-71
2021/09/18 00:35:43;;;;;;;15.57;6.22;;;;;;;23.61;43.66;101191.84;5061871;28;20107;-72
2021/09/18 00:38:08;;;;;;;14.05;5.68;;;;;;;23.59;43.46;101185.06;5061594;28;20593;-71
2021/09/18 00:40:35;;;;;;;15.98;6.00;;;;;;;23.56;43.71;101194.19;5055445;28;20407;-71
2021/09/18 00:43:00;;;;;;;17.02;5.72;;;;;;;23.55;43.55;101190.59;5062106;28;20027;-72
2021/09/18 00:45:26;;;;;;;13.65;6.43;;;;;;;23.51;43.67;101187.81;5061534;28;20021;-71
2021/09/18 00:47:51;;;;;;;13.55;5.78;;;;;;;23.52;43.65;101199.75;5062976;28;20070;-71
2021/09/18 00:50:17;;;;;;;11.43;6.38;;;;;;;23.48;43.34;101198.94;5065846;28;20103;-72
2021/09/18 00:52:43;;;;;;;14.05;6.38;;;;;;;23.55;43.08;101187.81;5066870;28;20078;-70
2021/09/18 00:55:09;;;;;;;21.08;5.90;;;;;;;23.43;43.67;101191.75;5073863;28;20028;-70
2021/09/18 00:57:34;;;;;;;14.85;5.70;;;;;;;23.34;44.04;101190.47;5068296;28;20378;-70
2021/09/18 01:00:03;;;;;;;15.73;6.43;;;;;;;23.33;43.85;101192.47;5073273;28;20036;-71
2021/09/18 01:02:30;;;;;;;13.80;6.82;;;;;;;23.36;43.65;101197.28;5062843;28;20099;-71
2021/09/18 01:04:55;;;;;;;17.95;5.70;;;;;;;23.23;44.08;101202.38;5062624;28;20055;-71
2021/09/18 01:07:22;;;;;;;15.77;5.97;;;;;;;23.32;43.62;101201.22;5063189;28;20021;-72
2021/09/18 01:09:49;;;;;;;11.00;6.05;;;;;;;23.23;43.96;101207.94;5060213;28;21626;-72
2021/09/18 01:12:15;;;;;;;18.20;6.40;;;;;;;23.25;43.95;101219.50;5060948;28;20025;-71
2021/09/18 01:14:45;;;;;;;14.35;6.80;;;;;;;23.27;43.84;101207.94;5062141;28;20052;-71
2021/09/18 01:17:11;;;;;;;18.65;6.65;;;;;;;23.40;43.50;101214.00;5069008;28;20059;-70
2021/09/18 01:19:36;;;;;;;15.35;6.18;;;;;;;23.43;43.49;101211.25;5078618;28;20034;-71
2021/09/18 01:22:04;;;;;;;18.10;6.97;;;;;;;23.37;44.22;101203.66;5071595;28;20023;-71
2021/09/18 01:24:29;;;;;;;11.23;6.25;;;;;;;23.43;43.85;101213.25;5057019;28;20068;-73
2021/09/18 01:26:55;;;;;;;15.32;5.85;;;;;;;23.44;44.05;101209.28;5042264;28;20057;-71
2021/09/18 01:29:21;;;;;;;16.65;6.45;;;;;;;23.34;44.22;101205.22;5042118;28;20028;-71
2021/09/18 01:31:48;;;;;;;15.40;7.20;;;;;;;23.42;44.12;101206.84;5047391;28;20028;-71
2021/09/18 01:34:21;;;;;;;14.45;7.38;;;;;;;23.44;44.17;101209.28;5062194;28;20035;-71
2021/09/18 01:36:49;;;;;;;13.40;7.25;;;;;;;23.46;44.24;101209.69;5059197;28;20045;-71
2021/09/18 01:39:15;;;;;;;15.88;5.85;;;;;;;23.42;44.49;101206.84;5058229;28;20036;-71
2021/09/18 01:41:43;;;;;;;13.20;7.82;;;;;;;23.51;44.19;101201.75;5068753;28;20116;-71
2021/09/18 01:44:13;;;;;;;13.27;6.78;;;;;;;23.53;43.89;101204.94;5075096;28;20029;-71
2021/09/18 01:46:38;;;;;;;11.35;6.30;;;;;;;23.55;44.18;101204.53;5065394;28;20032;-75
2021/09/18 01:49:04;;;;;;;12.77;5.88;;;;;;;23.57;44.35;101213.31;5059403;28;20017;-71
2021/09/18 01:51:32;;;;;;;17.85;7.18;;;;;;;23.61;44.24;101216.97;5059174;28;20411;-70
2021/09/18 01:53:58;;;;;;;12.50;6.47;;;;;;;23.66;44.13;101222.19;5041524;28;20035;-71
2021/09/18 01:56:23;;;;;;;18.05;7.07;;;;;;;23.70;44.00;101214.63;5046211;28;20024;-72
2021/09/18 01:58:49;;;;;;;13.82;6.38;;;;;;;23.72;44.31;101214.22;5058965;28;20494;-71
2021/09/18 02:01:15;;;;;;;14.50;6.78;;;;;;;23.56;44.48;101217.28;5057758;28;20534;-74
2021/09/18 02:03:41;;;;;;;10.55;5.45;;;;;;;23.69;44.25;101221.38;5063404;28;20033;-70
2021/09/18 02:06:07;;;;;;;11.73;6.10;;;;;;;23.54;44.50;101214.09;5074839;28;20444;-71
2021/09/18 02:08:32;;;;;;;17.10;6.65;;;;;;;23.70;43.73;101217.41;5074771;28;20086;-70
2021/09/18 02:10:58;;;;;;;20.17;6.60;;;;;;;23.74;43.70;101211.84;5074681;28;20104;-71
2021/09/18 02:13:24;;;;;;;16.77;6.13;;;;;;;23.62;44.10;101215.78;5074649;28;20071;-71
2021/09/18 02:15:50;;;;;;;11.18;4.93;;;;;;;23.72;43.53;101212.22;5074560;28;20032;-70
2021/09/18 02:18:16;;;;;;;15.10;5.63;;;;;;;23.69;43.59;101218.59;5074551;28;20463;-71
2021/09/18 02:20:42;;;;;;;11.18;5.03;;;;;;;23.67;43.80;101211.81;5074501;28;20020;-70
2021/09/18 02:23:11;;;;;;;13.25;6.88;;;;;;;23.67;43.42;101209.03;5074435;28;20032;-71
2021/09/18 02:25:37;;;;;;;22.02;5.93;;;;;;;23.69;43.54;101203.84;5074223;28;20032;-71
2021/09/18 02:28:04;;;;;;;16.73;6.43;;;;;;;23.60;43.29;101207.00;5074282;28;20028;-71
2021/09/18 02:30:31;;;;;;;12.35;5.65;;;;;;;23.51;43.44;101203.75;5073120;28;20030;-71
2021/09/18 02:32:58;;;;;;;12.18;5.22;;;;;;;23.41;43.51;101212.81;5073015;28;20494;-70
2021/09/18 02:35:26;;;;;;;13.23;5.50;;;;;;;23.40;43.58;101198.09;5073984;28;20544;-71
2021/09/18 02:37:53;;;;;;;15.73;5.85;;;;;;;23.40;43.61;101200.06;5074181;28;20029;-71
2021/09/18 02:40:20;;;;;;;12.75;5.60;;;;;;;23.46;43.41;101202.09;5074121;28;20615;-71
2021/09/18 02:42:51;;;;;;;16.95;4.90;;;;;;;23.40;43.54;101197.28;5072754;28;20371;-71
2021/09/18 02:45:17;;;;;;;12.70;5.40;;;;;;;23.40;43.30;101191.72;5073970;28;20054;-71
2021/09/18 02:47:43;;;;;;;9.63;4.72;;;;;;;23.40;43.32;101197.28;5074011;28;20029;-70
2021/09/18 02:50:11;;;;;;;14.20;5.38;;;;;;;23.33;43.48;101189.69;5072771;28;20086;-70
2021/09/18 02:52:37;;;;;;;12.88;4.93;;;;;;;23.31;43.49;101194.06;5073870;28;20398;-71
2021/09/18 02:55:05;;;;;;;12.82;4.97;;;;;;;23.36;43.18;101196.47;5072560;28;20067;-70
2021/09/18 02:57:31;;;;;;;10.80;4.90;;;;;;;23.39;43.21;101190.91;5073771;28;20029;-71
2021/09/18 02:59:56;;;;;;;11.68;4.65;;;;;;;23.35;43.29;101192.91;5073983;28;20111;-70
2021/09/18 03:02:22;;;;;;;14.38;5.32;;;;;;;23.39;43.11;101198.47;5073535;28;20102;-70
2021/09/18 03:04:47;;;;;;;11.73;4.95;;;;;;;23.36;43.34;101194.50;5061502;28;20161;-71
2021/09/18 03:07:13;;;;;;;9.00;4.88;;;;;;;23.47;42.97;101186.97;5057943;28;20138;-71
2021/09/18 03:09:39;;;;;;;14.43;5.28;;;;;;;23.47;43.03;101191.75;5057161;28;20025;-71
2021/09/18 03:12:04;;;;;;;12.40;6.05;;;;;;;23.41;43.48;101194.09;5055083;28;20024;-71
2021/09/18 03:14:30;;;;;;;15.43;6.13;;;;;;;23.41;43.51;101196.09;5066936;28;20402;-71
2021/09/18 03:16:55;;;;;;;12.23;5.30;;;;;;;23.42;43.29;101197.69;5073371;28;20067;-70
2021/09/18 03:19:21;;;;;;;8.48;4.53;;;;;;;23.49;43.30;101201.31;5073366;28;20020;-71
2021/09/18 03:21:47;;;;;;;18.33;6.07;;;;;;;23.51;43.31;101198.97;5073318;28;20073;-70
2021/09/18 03:24:13;;;;;;;18.08;5.47;;;;;;;23.51;43.37;101204.53;5073105;28;20024;-70
2021/09/18 03:26:41;;;;;;;10.32;5.05;;;;;;;23.62;43.17;101195.44;5073476;28;20028;-75
2021/09/18 03:29:06;;;;;;;10.90;5.07;;;;;;;23.71;43.20;101205.03;5066182;28;20075;-72
2021/09/18 03:31:32;;;;;;;12.25;5.55;;;;;;;23.75;42.99;101208.66;5046014;28;20471;-71
2021/09/18 03:33:57;;;;;;;14.48;6.57;;;;;;;23.73;43.26;101210.25;5059965;28;20463;-70
2021/09/18 03:36:23;;;;;;;14.18;5.78;;;;;;;23.70;43.35;101208.22;5072578;28;20044;-71
2021/09/18 03:38:49;;;;;;;12.90;5.65;;;;;;;23.72;43.29;101208.63;5071725;28;20025;-71
2021/09/18 03:41:14;;;;;;;11.27;5.72;;;;;;;23.69;43.46;101209.44;5073171;28;20095;-70
2021/09/18 03:43:40;;;;;;;19.00;6.43;;;;;;;23.75;43.37;101205.88;5072850;28;20463;-70
2021/09/18 03:46:05;;;;;;;9.80;5.45;;;;;;;23.70;43.19;101217.41;5072908;28;20086;-71
2021/09/18 03:48:31;;;;;;;11.05;6.35;;;;;;;23.70;43.38;101206.25;5072811;28;20082;-71
2021/09/18 03:50:56;;;;;;;13.05;4.70;;;;;;;23.71;43.50;101209.84;5072847;28;20028;-71
2021/09/18 03:53:22;;;;;;;11.43;5.07;;;;;;;23.74;43.45;101207.06;5071482;28;20035;-71
2021/09/18 03:55:47;;;;;;;13.95;6.07;;;;;;;23.68;43.42;101205.03;5073025;28;20108;-70
2021/09/18 03:58:13;;;;;;;11.75;5.70;;;;;;;23.69;43.27;101201.84;5088343;28;20432;-71
2021/09/18 04:00:39;;;;;;;14.10;5.68;;;;;;;23.71;43.21;101207.84;5072342;28;20024;-71
2021/09/18 04:03:05;;;;;;;22.75;6.50;;;;;;;23.71;43.09;101207.84;5072921;28;20025;-71
2021/09/18 04:05:30;;;;;;;16.60;5.63;;;;;;;23.73;43.14;101205.47;5072624;28;20453;-76
2021/09/18 04:07:56;;;;;;;10.00;5.15;;;;;;;23.84;43.09;101210.28;5072674;28;20020;-70
2021/09/18 04:10:21;;;;;;;12.25;5.25;;;;;;;23.82;43.32;101212.69;5072536;28;20035;-71
2021/09/18 04:12:47;;;;;;;14.13;5.38;;;;;;;23.84;42.84;101207.50;5072480;28;20043;-70
2021/09/18 04:15:12;;;;;;;11.13;4.20;;;;;;;23.83;42.88;101214.28;5072766;28;20028;-72
2021/09/18 04:17:38;;;;;;;9.27;4.50;;;;;;;23.66;43.48;101216.59;5072483;28;20371;-73
2021/09/18 04:20:05;;;;;;;9.35;4.28;;;;;;;23.69;43.27;101209.44;5071227;28;20024;-72
2021/09/18 04:22:31;;;;;;;13.27;4.65;;;;;;;23.67;43.37;101207.03;5072335;28;20036;-72
2021/09/18 04:24:57;;;;;;;9.88;4.47;;;;;;;23.71;43.06;101202.25;5072405;28;20052;-72
2021/09/18 04:27:23;;;;;;;12.23;5.35;;;;;;;23.67;43.49;101204.25;5072639;28;20390;-72
2021/09/18 04:29:48;;;;;;;11.63;4.75;;;;;;;23.76;43.20;101209.47;5072477;28;20025;-72
2021/09/18 04:32:14;;;;;;;10.18;5.05;;;;;;;23.94;42.42;101213.13;5071067;28;20108;-72
2021/09/18 04:34:39;;;;;;;11.75;4.93;;;;;;;23.93;42.36;101202.34;5072152;28;20174;-73
2021/09/18 04:37:05;;;;;;;12.68;5.35;;;;;;;23.80;42.75;101215.84;5072402;28;20489;-72
2021/09/18 04:39:30;;;;;;;29.77;6.72;;;;;;;23.75;43.33;101213.44;5072609;28;20044;-72
2021/09/18 04:41:56;;;;;;;12.05;5.00;;;;;;;23.83;42.71;101214.28;5070941;28;20391;-72
2021/09/18 04:44:22;;;;;;;10.57;4.00;;;;;;;23.69;43.39;101212.22;5070953;28;20032;-72
2021/09/18 04:46:47;;;;;;;13.52;4.57;;;;;;;23.70;43.01;101213.81;5065354;28;20033;-73
2021/09/18 04:49:13;;;;;;;10.02;3.72;;;;;;;23.68;43.05;101211.41;5042233;28;20021;-73
2021/09/18 04:51:38;;;;;;;12.40;4.22;;;;;;;23.54;43.64;101225.25;5060002;28;20021;-72
2021/09/18 04:54:04;;;;;;;10.70;4.50;;;;;;;23.59;43.16;101221.31;5061706;28;20035;-73
2021/09/18 04:56:30;;;;;;;11.18;3.95;;;;;;;23.61;43.01;101230.91;5061168;28;20099;-72
2021/09/18 04:58:55;;;;;;;9.00;4.45;;;;;;;23.58;43.42;101223.31;5060299;28;20124;-73
2021/09/18 05:01:21;;;;;;;10.60;3.88;;;;;;;23.54;43.49;101226.06;5068610;28;20471;-73
2021/09/18 05:03:47;;;;;;;9.43;3.97;;;;;;;23.68;43.12;101225.38;5066232;28;20082;-73
2021/09/18 05:06:13;;;;;;;11.90;3.53;;;;;;;23.66;43.04;101224.97;5062715;28;20025;-73
2021/09/18 05:08:38;;;;;;;9.05;3.10;;;;;;;23.59;43.36;101227.69;5058936;28;20104;-74
2021/09/18 05:11:04;;;;;;;13.57;5.13;;;;;;;23.64;43.12;101234.91;5048227;28;20021;-73
2021/09/18 05:13:29;;;;;;;13.73;4.00;;;;;;;23.47;43.53;101234.38;5047297;28;20029;-73
2021/09/18 05:15:55;;;;;;;13.48;4.60;;;;;;;23.64;43.06;101238.50;5058213;28;20025;-73
2021/09/18 05:18:20;;;;;;;10.70;4.57;;;;;;;23.50;43.18;101241.97;5063524;28;20096;-73
2021/09/18 05:20:46;;;;;;;10.32;3.90;;;;;;;23.42;43.44;101231.16;5064837;28;20501;-73
2021/09/18 05:23:12;;;;;;;11.20;4.10;;;;;;;23.48;43.12;101240.75;5065068;28;20463;-73
2021/09/18 05:25:37;;;;;;;9.32;3.97;;;;;;;23.58;42.89;101244.78;5063182;28;20150;-74
2021/09/18 05:28:03;;;;;;;8.75;3.60;;;;;;;23.38;43.31;101247.06;5064703;28;20021;-74
2021/09/18 05:30:28;;;;;;;12.60;4.28;;;;;;;23.33;43.15;101253.00;5048708;28;20036;-73
2021/09/18 05:32:54;;;;;;;10.13;3.53;;;;;;;23.26;43.06;101248.19;5050526;28;20025;-73
2021/09/18 05:35:20;;;;;;;10.50;4.03;;;;;;;23.11;43.41;101244.47;5063006;28;20131;-73
2021/09/18 05:37:45;;;;;;;11.55;3.75;;;;;;;23.07;43.34;101254.81;5064940;28;20036;-73
2021/09/18 05:40:11;;;;;;;11.23;3.58;;;;;;;22.90;43.85;101252.69;5061969;28;20043;-73
2021/09/18 05:42:37;;;;;;;11.85;5.00;;;;;;;22.96;43.60;101257.50;5063169;28;20025;-73
2021/09/18 05:45:05;;;;;;;6.93;3.50;;;;;;;23.05;43.33;101267.50;5063277;28;20586;-74
2021/09/18 05:47:31;;;;;;;10.85;4.60;;;;;;;22.96;43.58;101257.50;5063823;28;20408;-73
2021/09/18 05:49:57;;;;;;;9.63;3.92;;;;;;;23.06;43.11;101255.22;5065170;28;20038;-73
2021/09/18 05:52:22;;;;;;;9.40;3.88;;;;;;;23.08;43.11;101259.19;5063218;28;20025;-78
2021/09/18 05:54:48;;;;;;;12.13;4.45;;;;;;;23.00;43.08;101263.13;5064124;28;20140;-73
2021/09/18 05:57:14;;;;;;;8.90;3.42;;;;;;;22.95;43.30;101263.47;5064685;28;20028;-73
2021/09/18 05:59:39;;;;;;;13.50;4.30;;;;;;;22.94;43.44;101259.88;5063021;28;20509;-75
2021/09/18 06:02:06;;;;;;;12.38;4.10;;;;;;;22.81;43.64;101266.09;5064412;28;20107;-73
2021/09/18 06:04:31;;;;;;;10.95;4.43;;;;;;;22.73;43.53;101261.63;5064071;28;20463;-72
2021/09/18 06:06:57;;;;;;;10.63;4.13;;;;;;;22.78;43.36;101266.84;5062686;28;20032;-73
2021/09/18 06:09:22;;;;;;;15.07;5.15;;;;;;;22.55;43.94;101259.47;5064622;28;20029;-73
2021/09/18 06:11:48;;;;;;;8.93;4.15;;;;;;;22.79;43.21;101262.88;5063593;28;20029;-73
2021/09/18 06:14:13;;;;;;;6.97;3.50;;;;;;;22.70;43.21;101261.22;5062989;28;20474;-73
2021/09/18 06:16:39;;;;;;;11.50;4.35;;;;;;;22.76;43.33;101269.25;5064552;28;20398;-73
2021/09/18 06:19:05;;;;;;;8.10;4.18;;;;;;;22.77;43.09;101245.75;5061716;28;20491;-73
2021/09/18 06:21:30;;;;;;;7.28;3.95;;;;;;;22.65;43.46;101264.34;5063209;28;20035;-73
2021/09/18 06:23:56;;;;;;;10.18;4.78;;;;;;;22.66;43.33;101265.94;5064066;28;20024;-73
2021/09/18 06:26:22;;;;;;;16.63;5.55;;;;;;;22.57;43.24;101268.25;5070790;28;20424;-73
2021/09/18 06:28:49;;;;;;;12.48;3.85;;;;;;;22.58;43.34;101264.28;5073315;28;20033;-72
2021/09/18 06:31:14;;;;;;;10.82;4.20;;;;;;;22.59;43.18;101265.06;5073393;28;20029;-73
2021/09/18 06:33:40;;;;;;;15.90;4.53;;;;;;;22.62;42.95;101259.56;5073206;28;20053;-73
2021/09/18 06:36:05;;;;;;;17.92;6.40;;;;;;;22.59;43.28;101270.63;5073143;28;20090;-73
2021/09/18 06:38:31;;;;;;;9.45;4.13;;;;;;;22.52;43.40;101271.38;5073181;28;20070;-73
2021/09/18 06:40:58;;;;;;;16.58;5.30;;;;;;;22.47;43.26;101287.63;5073106;28;20552;-73
2021/09/18 06:43:24;;;;;;;10.43;4.25;;;;;;;22.48;43.08;101278.88;5073253;28;20031;-73
2021/09/18 06:45:50;;;;;;;16.70;5.63;;;;;;;22.45;43.30;101276.88;5071670;28;20433;-75
2021/09/18 06:48:16;;;;;;;15.45;6.05;;;;;;;22.44;43.26;101275.25;5073045;28;20052;-73
2021/09/18 06:50:42;;;;;;;9.13;4.97;;;;;;;22.54;42.79;101282.94;5072990;28;20527;-72
2021/09/18 06:53:08;;;;;;;15.00;5.75;;;;;;;22.38;43.32;101283.16;5073463;28;20029;-75
2021/09/18 06:55:35;;;;;;;10.18;4.88;;;;;;;22.34;43.46;101279.53;5073356;28;20032;-79
2021/09/18 06:58:00;;;;;;;9.13;4.65;;;;;;;22.40;43.17;101278.00;5073482;28;20028;-72
2021/09/18 07:00:27;;;;;;;19.02;5.85;;;;;;;22.34;43.12;101287.06;5073190;28;20039;-79
2021/09/18 07:02:52;;;;;;;7.65;4.55;;;;;;;22.15;43.82;101288.06;5073867;28;20399;-78
2021/09/18 07:05:18;;;;;;;20.27;7.20;;;;;;;22.07;43.81;101289.91;5063499;28;20033;-75
2021/09/18 07:07:45;;;;;;;7.78;4.85;;;;;;;22.11;43.74;101290.78;5073423;28;20031;-79
2021/09/18 07:10:12;;;;;;;15.90;5.85;;;;;;;22.00;43.83;101294.59;5065955;28;20112;-78
2021/09/18 07:12:38;;;;;;;9.45;4.97;;;;;;;22.05;43.64;101297.81;5061268;28;20028;-75
2021/09/18 07:15:04;;;;;;;18.92;6.70;;;;;;;22.17;43.56;101280.13;5060393;28;20381;-73
2021/09/18 07:17:29;;;;;;;21.13;6.70;;;;;;;22.05;43.96;101294.25;5057498;28;20475;-74
2021/09/18 07:19:57;;;;;;;14.80;5.80;;;;;;;22.14;43.41;101287.25;5053378;28;20086;-79
2021/09/18 07:22:26;;;;;;;13.10;5.47;;;;;;;22.20;43.67;101287.72;5053491;28;20044;-72
2021/09/18 07:24:52;;;;;;;11.40;5.87;;;;;;;22.29;43.43;101288.25;5053299;28;20104;-73
2021/09/18 07:27:18;;;;;;;17.42;7.32;;;;;;;22.17;44.15;101293.25;5053426;28;20361;-72
2021/09/18 07:29:44;;;;;;;15.27;8.70;;;;;;;22.24;43.87;101287.75;5039898;28;20467;-73
2021/09/18 07:32:10;;;;;;;16.52;7.50;;;;;;;22.42;43.54;101292.34;5062500;28;20035;-74
2021/09/18 07:34:36;;;;;;;12.38;7.18;;;;;;;22.49;43.51;101290.81;5056189;28;20025;-74
2021/09/18 07:37:02;;;;;;;17.90;8.30;;;;;;;22.49;43.29;101288.84;5056298;28;20033;-73
2021/09/18 07:39:28;;;;;;;20.33;8.45;;;;;;;22.52;43.37;101293.66;5056478;28;20034;-73
2021/09/18 07:41:54;;;;;;;15.65;8.52;;;;;;;22.57;43.55;101293.31;5059763;28;20103;-73
2021/09/18 07:44:20;;;;;;;16.23;7.53;;;;;;;22.73;43.34;101286.69;5072918;28;20029;-72
2021/09/18 07:46:45;;;;;;;14.00;8.18;;;;;;;22.79;43.26;101280.41;5072817;28;20448;-72
2021/09/18 07:49:11;;;;;;;19.67;8.50;;;;;;;22.90;43.13;101275.78;5072957;28;20040;-72
2021/09/18 07:51:37;;;;;;;27.75;8.30;;;;;;;22.94;43.37;101282.16;5072829;28;20037;-71
2021/09/18 07:54:03;;;;;;;40.50;9.82;;;;;;;23.03;43.11;101275.47;5072799;28;20028;-77
2021/09/18 07:56:28;;;;;;;24.13;8.32;;;;;;;23.11;43.10;101275.13;5066882;28;20025;-73
2021/09/18 07:58:54;;;;;;;26.08;9.27;;;;;;;23.13;43.32;101281.16;5054680;28;20445;-72
2021/09/18 08:01:21;;;;;;;14.40;7.93;;;;;;;23.31;42.89;101277.69;5056097;28;20120;-73
2021/09/18 08:03:47;;;;;;;19.98;7.88;;;;;;;23.32;43.24;101282.88;5054585;28;20426;-77
2021/09/18 08:06:12;;;;;;;14.20;7.35;;;;;;;23.50;42.64;101286.59;5056020;28;20031;-74
2021/09/18 08:08:38;;;;;;;18.85;8.63;;;;;;;23.43;43.25;101296.91;5056552;28;20494;-74
2021/09/18 08:11:04;;;;;;;13.68;6.20;;;;;;;23.20;43.46;101285.97;5049637;28;20052;-72
2021/09/18 08:13:29;;;;;;;13.65;7.70;;;;;;;23.37;43.06;101299.25;5055277;28;20038;-76
2021/09/18 08:15:55;;;;;;;17.25;7.53;;;;;;;23.45;43.16;101286.97;5056681;28;20028;-73
2021/09/18 08:18:21;;;;;;;19.13;8.73;;;;;;;23.64;42.76;101285.91;5055929;28;20029;-72
2021/09/18 08:20:47;;;;;;;19.85;8.45;;;;;;;23.62;42.77;101288.28;5056720;28;20176;-72
2021/09/18 08:23:12;;;;;;;16.65;6.93;;;;;;;23.90;42.46;101286.88;5055588;28;21854;-72
2021/09/18 08:25:38;;;;;;;21.80;6.45;;;;;;;23.99;42.49;101290.09;5053763;28;20066;-73
2021/09/18 08:28:04;;;;;;;13.65;6.57;;;;;;;24.14;42.11;101288.16;5054618;28;20059;-73
2021/09/18 08:30:30;;;;;;;11.65;5.63;;;;;;;23.72;43.51;101295.13;5070197;28;20021;-76
2021/09/18 08:32:56;;;;;;;13.02;6.32;;;;;;;23.74;43.20;101301.13;5071247;28;20032;-72
2021/09/18 08:35:22;;;;;;;17.00;7.57;;;;;;;23.78;43.06;101304.72;5066712;28;20056;-72
2021/09/18 08:37:47;;;;;;;15.88;9.25;;;;;;;23.71;43.16;101302.69;5054172;28;20085;-73
2021/09/18 08:40:13;;;;;;;22.83;11.27;;;;;;;23.71;42.97;101302.69;5072301;28;20033;-72
2021/09/18 08:42:41;;;;;;;22.25;12.25;;;;;;;23.42;43.48;101300.88;5072313;28;20024;-72
2021/09/18 08:45:10;;;;;;;25.80;12.90;;;;;;;23.51;43.44;101299.38;5069963;28;20025;-72
2021/09/18 08:47:37;;;;;;;21.20;12.17;;;;;;;23.48;43.07;101293.75;5057731;28;20031;-72
2021/09/18 08:50:05;;;;;;;25.55;13.85;;;;;;;23.56;42.91;101298.19;5059652;28;20021;-72
2021/09/18 08:52:31;;;;;;;27.10;14.20;;;;;;;23.41;43.21;101293.69;5060062;28;20028;-72
2021/09/18 08:54:57;;;;;;;25.75;12.98;;;;;;;23.34;42.98;101291.66;5064967;28;20050;-71
2021/09/18 08:57:23;;;;;;;22.65;13.93;;;;;;;23.28;43.46;101289.63;5076136;28;20028;-72
2021/09/18 08:59:48;;;;;;;26.75;14.25;;;;;;;23.43;43.41;101292.13;5068909;28;20051;-73
2021/09/18 09:02:23;;;;;;;27.25;13.80;;;;;;;23.63;43.32;101284.31;5074181;28;20059;-72
2021/09/18 09:04:48;;;;;;;26.50;14.70;;;;;;;23.73;42.90;101280.81;5061794;28;20024;-72
2021/09/18 09:07:16;;;;;;;35.58;16.50;;;;;;;23.88;43.20;101289.22;5059498;28;20090;-73
2021/09/18 09:10:13;;;;;;;28.05;12.40;;;;;;;24.01;42.78;101290.50;5059311;28;20028;-73
2021/09/18 09:12:39;;;;;;;15.20;10.50;;;;;;;24.18;42.91;101286.19;5020323;28;20042;-73
2021/09/18 09:15:18;;;;;;;13.20;8.38;;;;;;;24.34;42.77;101283.91;5044277;28;20028;-74
2021/09/18 09:17:49;;;;;;;12.27;6.68;;;;;;;24.45;42.25;101284.72;5057735;28;20109;-72
2021/09/18 09:20:22;;;;;;;12.35;6.05;;;;;;;24.24;42.60;101277.03;5067711;28;20123;-72
2021/09/18 09:22:50;;;;;;;30.20;8.05;;;;;;;24.62;41.92;101277.56;5075643;28;20064;-72
2021/09/18 09:25:36;;;;;;;13.63;5.65;;;;;;;24.44;42.45;101274.75;5074169;28;20063;-72
2021/09/18 09:28:22;;;;;;;21.80;8.52;;;;;;;24.79;41.65;101276.03;5075386;28;20070;-72
2021/09/18 09:30:48;;;;;;;12.18;7.63;;;;;;;24.63;42.06;101277.16;5058230;28;20024;-73
2021/09/18 09:33:13;;;;;;;12.57;8.02;;;;;;;24.83;41.56;101277.59;5059421;28;20016;-72
2021/09/18 09:35:41;;;;;;;17.45;9.48;;;;;;;24.99;41.30;101277.22;5072974;28;20414;-72
2021/09/18 09:38:07;;;;;;;15.75;9.80;;;;;;;25.07;41.69;101275.25;5075415;28;20035;-72
2021/09/18 09:40:42;;;;;;;19.30;9.45;;;;;;;24.99;41.56;101274.41;5061439;28;20397;-72
2021/09/18 09:43:10;;;;;;;13.15;8.80;;;;;;;25.17;41.25;101271.69;5057228;28;20044;-72
2021/09/18 09:45:36;;;;;;;12.48;8.50;;;;;;;25.34;41.16;101272.84;5058447;28;20047;-73
2021/09/18 09:48:08;;;;;;;19.65;11.57;;;;;;;25.29;41.22;101279.63;5058587;28;20421;-72
2021/09/18 09:50:35;;;;;;;21.20;12.13;;;;;;;25.40;41.05;101279.66;5058820;28;20063;-73
2021/09/18 09:53:02;;;;;;;26.13;15.45;;;;;;;25.05;41.66;101278.44;5059314;28;20028;-73
2021/09/18 09:55:27;;;;;;;25.33;14.75;;;;;;;25.41;41.16;101287.63;5058414;28;20036;-73
2021/09/18 09:58:09;;;;;;;25.17;15.60;;;;;;;25.51;41.02;101288.00;5056966;28;20025;-72
2021/09/18 10:00:49;;;;;;;37.30;20.25;;;;;;;25.33;41.25;101286.03;5057638;28;20048;-73
2021/09/18 10:03:15;;;;;;;39.03;22.50;;;;;;;25.14;41.28;101280.84;5056518;28;20033;-72
2021/09/18 10:05:41;;;;;;;31.52;19.45;;;;;;;24.70;42.14;101283.97;5057082;28;20058;-72
2021/09/18 10:08:06;;;;;;;22.73;14.75;;;;;;;25.30;40.92;101283.22;5057333;28;20020;-78
2021/09/18 10:10:33;;;;;;;27.05;15.30;;;;;;;25.39;41.01;101292.84;5057045;28;20478;-72
2021/09/18 10:12:59;;;;;;;24.52;15.07;;;;;;;25.52;41.04;101287.59;5058359;28;20494;-72
2021/09/18 10:15:27;;;;;;;20.90;13.73;;;;;;;25.60;41.25;101289.19;5057952;28;20075;-72
2021/09/18 10:17:55;;;;;;;16.52;9.57;;;;;;;25.17;41.98;101282.84;5059161;28;20113;-73
2021/09/18 10:25:36;;;;;;;21.20;8.93;;;;;;;26.08;40.50;101282.28;5072189;28;20066;-71
2021/09/18 10:28:40;;;;;;;12.18;4.90;;;;;;;26.17;40.34;101268.66;5074477;28;20035;-76
2021/09/18 10:31:17;;;;;;;11.77;5.85;;;;;;;26.38;39.86;101271.34;5074197;28;20033;-72
2021/09/18 10:33:49;;;;;;;16.30;7.20;;;;;;;26.44;40.06;101280.13;5074420;28;20047;-72
2021/09/18 10:36:22;;;;;;;13.55;6.40;;;;;;;26.66;39.38;101266.78;5074119;28;20611;-72
2021/09/18 10:39:08;;;;;;;12.88;5.47;;;;;;;26.77;38.70;101261.91;5074176;28;20029;-72
2021/09/18 10:41:49;;;;;;;14.70;4.70;;;;;;;26.87;38.49;101258.22;5074238;28;20052;-72
2021/09/18 10:44:17;;;;;;;12.32;4.88;;;;;;;27.01;38.62;101260.91;5074074;28;20024;-71
2021/09/18 10:46:49;;;;;;;14.68;4.43;;;;;;;27.10;38.49;101254.88;5074118;28;20021;-71
2021/09/18 10:49:44;;;;;;;10.85;4.70;;;;;;;27.08;38.39;101260.09;5074137;28;20024;-73
2021/09/18 10:52:23;;;;;;;11.07;4.22;;;;;;;27.07;38.35;101256.50;5061209;28;20064;-74
2021/09/18 10:55:01;;;;;;;10.38;3.83;;;;;;;27.17;38.10;101256.81;5073861;28;20533;-74
2021/09/18 10:57:41;;;;;;;13.98;3.97;;;;;;;27.07;37.88;101252.91;5073784;28;20029;-79
2021/09/18 11:00:34;;;;;;;9.60;4.15;;;;;;;27.12;37.58;101257.25;5058401;28;20115;-73
2021/09/18 11:03:02;;;;;;;9.90;4.57;;;;;;;27.25;37.59;101261.16;5050912;28;20108;-74
2021/09/18 11:05:28;;;;;;;14.30;4.22;;;;;;;27.44;37.19;101249.34;5042528;28;20047;-83
2021/09/18 11:07:58;;;;;;;8.48;2.92;;;;;;;27.31;36.72;101256.69;5052646;28;20032;-81
2021/09/18 11:10:24;;;;;;;14.95;4.03;;;;;;;27.34;37.36;101245.41;5049554;28;20064;-88
2021/09/18 11:13:08;;;;;;;12.23;3.95;;;;;;;27.13;37.45;101250.41;5055921;28;20454;-70
2021/09/18 11:15:48;;;;;;;12.02;3.65;;;;;;;27.55;36.58;101244.41;5058596;28;20037;-71
2021/09/18 11:18:31;;;;;;;7.38;3.50;;;;;;;27.87;36.38;101243.25;5056086;28;20051;-71
2021/09/18 11:21:20;;;;;;;14.07;4.00;;;;;;;28.08;35.90;101243.00;5056453;28;20029;-73
2021/09/18 11:23:52;;;;;;;9.18;3.25;;;;;;;28.25;35.93;101235.53;5030914;28;20031;-82